createdAt,value
2019-06-26T00:01:14.724Z,26.07
2019-06-26T00:03:17.054Z,26.04
2019-06-26T00:05:19.676Z,26.05
2019-06-26T00:07:22.125Z,26.05
2019-06-26T00:09:24.744Z,26.03
2019-06-26T00:11:27.093Z,26.04
2019-06-26T00:13:29.451Z,26.02
2019-06-26T00:15:31.792Z,26.02
2019-06-26T00:17:34.135Z,26.02
2019-06-26T00:19:36.457Z,26.02
2019-06-26T00:21:38.785Z,26.02
2019-06-26T00:23:41.431Z,26.02
2019-06-26T00:25:43.788Z,26.02
2019-06-26T00:27:46.482Z,26.01
2019-06-26T00:29:49.087Z,26.01
2019-06-26T00:31:51.453Z,26.01
2019-06-26T00:33:53.794Z,25.99
2019-06-26T00:35:56.144Z,25.99
2019-06-26T00:37:58.457Z,26.00
2019-06-26T00:40:01.097Z,25.99
2019-06-26T00:42:03.460Z,25.98
2019-06-26T00:44:05.900Z,25.98
2019-06-26T00:46:08.399Z,25.98
2019-06-26T00:48:10.709Z,25.97
2019-06-26T00:50:13.033Z,25.97
2019-06-26T00:52:15.366Z,25.98
2019-06-26T00:54:17.707Z,25.98
2019-06-26T00:56:20.155Z,25.97
2019-06-26T00:58:22.490Z,25.97
2019-06-26T01:00:24.811Z,25.95
2019-06-26T01:02:27.316Z,25.96
2019-06-26T01:04:29.630Z,25.96
2019-06-26T01:06:32.055Z,25.96
2019-06-26T01:08:34.608Z,25.95
2019-06-26T01:10:36.928Z,25.95
2019-06-26T01:12:39.261Z,25.95
2019-06-26T01:14:41.579Z,25.94
2019-06-26T01:16:43.920Z,25.94
2019-06-26T01:18:46.623Z,25.95
2019-06-26T01:20:48.940Z,25.92
2019-06-26T01:22:51.289Z,25.94
2019-06-26T01:24:53.611Z,25.94
2019-06-26T01:26:55.958Z,25.93
2019-06-26T01:28:58.279Z,25.93
2019-06-26T01:31:00.608Z,25.93
2019-06-26T01:33:02.935Z,25.93
2019-06-26T01:35:05.579Z,25.92
2019-06-26T01:37:07.903Z,25.92
2019-06-26T01:39:10.304Z,25.92
2019-06-26T01:41:12.604Z,25.93
2019-06-26T01:43:14.954Z,25.91
2019-06-26T01:45:17.280Z,25.90
2019-06-26T01:47:19.628Z,25.92
2019-06-26T01:49:22.249Z,25.90
2019-06-26T01:51:24.562Z,25.90
2019-06-26T01:53:26.886Z,25.89
2019-06-26T01:55:29.536Z,25.90
2019-06-26T01:57:31.881Z,25.90
2019-06-26T01:59:34.199Z,25.89
2019-06-26T02:01:36.532Z,25.89
2019-06-26T02:03:38.932Z,25.89
2019-06-26T02:05:41.260Z,25.89
2019-06-26T02:07:43.616Z,25.89
2019-06-26T02:09:45.936Z,25.88
2019-06-26T02:11:48.259Z,25.88
2019-06-26T02:13:50.583Z,25.88
2019-06-26T02:15:52.932Z,25.88
2019-06-26T02:17:55.551Z,25.88
2019-06-26T02:19:57.880Z,25.88
2019-06-26T02:22:00.235Z,25.88
2019-06-26T02:24:02.590Z,25.87
2019-06-26T02:26:04.889Z,25.87
2019-06-26T02:28:07.242Z,25.86
2019-06-26T02:30:09.854Z,25.87
2019-06-26T02:32:12.167Z,25.87
2019-06-26T02:34:14.492Z,25.87
2019-06-26T02:36:17.099Z,25.86
2019-06-26T02:38:19.591Z,25.86
2019-06-26T02:40:22.218Z,25.86
2019-06-26T02:42:24.724Z,25.86
2019-06-26T02:44:27.353Z,25.85
2019-06-26T02:46:30.037Z,25.86
2019-06-26T02:48:32.408Z,25.86
2019-06-26T02:50:35.098Z,25.86
2019-06-26T02:52:37.761Z,25.85
2019-06-26T02:54:40.086Z,25.85
2019-06-26T02:56:42.406Z,25.85
2019-06-26T02:58:45.068Z,25.85
2019-06-26T03:00:47.743Z,25.85
2019-06-26T03:02:50.227Z,25.84
2019-06-26T03:04:52.576Z,25.85
2019-06-26T03:06:54.881Z,25.83
2019-06-26T03:08:57.234Z,25.83
2019-06-26T03:10:59.569Z,25.83
2019-06-26T03:13:01.915Z,25.84
2019-06-26T03:15:08.680Z,25.84
2019-06-26T03:17:08.179Z,25.84
2019-06-26T03:19:10.906Z,25.83
2019-06-26T03:21:13.236Z,25.84
2019-06-26T03:23:15.957Z,25.83
2019-06-26T03:25:18.275Z,25.82
2019-06-26T03:27:20.739Z,25.84
2019-06-26T03:29:23.067Z,25.82
2019-06-26T03:31:25.535Z,25.83
2019-06-26T03:33:27.859Z,25.83
2019-06-26T03:35:30.205Z,25.83
2019-06-26T03:37:32.505Z,25.82
2019-06-26T03:39:34.891Z,25.82
2019-06-26T03:41:37.937Z,25.82
2019-06-26T03:43:40.671Z,25.81
2019-06-26T03:45:43.288Z,25.82
2019-06-26T03:47:45.608Z,25.83
2019-06-26T03:49:47.930Z,25.82
2019-06-26T03:51:50.664Z,25.81
2019-06-26T03:53:53.025Z,25.81
2019-06-26T03:55:55.350Z,25.81
2019-06-26T03:57:57.655Z,25.81
2019-06-26T04:00:00.011Z,25.81
2019-06-26T04:02:02.332Z,25.81
2019-06-26T04:04:04.683Z,25.80
2019-06-26T04:06:07.008Z,25.81
2019-06-26T04:08:09.525Z,25.80
2019-06-26T04:10:11.808Z,25.80
2019-06-26T04:12:14.995Z,25.79
2019-06-26T04:14:17.494Z,25.80
2019-06-26T04:16:19.823Z,25.79
2019-06-26T04:18:22.292Z,25.79
2019-06-26T04:20:24.648Z,25.79
2019-06-26T04:22:26.973Z,25.78
2019-06-26T04:24:29.466Z,25.78
2019-06-26T04:26:31.836Z,25.78
2019-06-26T04:28:34.336Z,25.79
2019-06-26T04:30:36.818Z,25.79
2019-06-26T04:32:39.171Z,25.76
2019-06-26T04:34:41.523Z,25.73
2019-06-26T04:36:43.858Z,25.70
2019-06-26T04:38:47.119Z,25.68
2019-06-26T04:40:49.470Z,25.66
2019-06-26T04:42:51.786Z,25.64
2019-06-26T04:44:54.134Z,25.61
2019-06-26T04:46:56.454Z,25.59
2019-06-26T04:48:59.059Z,25.58
2019-06-26T04:51:02.335Z,25.58
2019-06-26T04:53:04.662Z,25.56
2019-06-26T04:55:07.024Z,25.53
2019-06-26T04:57:09.742Z,25.52
2019-06-26T04:59:12.427Z,25.51
2019-06-26T05:01:14.773Z,25.48
2019-06-26T05:03:17.096Z,25.46
2019-06-26T05:05:19.455Z,25.45
2019-06-26T05:07:22.065Z,25.43
2019-06-26T05:09:24.390Z,25.43
2019-06-26T05:11:29.203Z,25.42
2019-06-26T05:13:31.614Z,25.42
2019-06-26T05:15:33.964Z,25.41
2019-06-26T05:17:36.450Z,25.44
2019-06-26T05:19:38.826Z,25.45
2019-06-26T05:21:41.179Z,25.45
2019-06-26T05:23:43.502Z,25.45
2019-06-26T05:25:46.197Z,25.48
2019-06-26T05:27:48.511Z,25.49
2019-06-26T05:29:54.317Z,25.49
2019-06-26T05:31:55.558Z,25.49
2019-06-26T05:33:58.247Z,25.49
2019-06-26T05:36:00.906Z,25.48
2019-06-26T05:38:03.589Z,25.48
2019-06-26T05:40:05.907Z,25.52
2019-06-26T05:42:08.287Z,25.57
2019-06-26T05:44:10.632Z,25.61
2019-06-26T05:46:13.133Z,25.64
2019-06-26T05:48:15.463Z,25.69
2019-06-26T05:50:17.844Z,25.71
2019-06-26T05:52:20.607Z,25.75
2019-06-26T05:54:23.052Z,25.77
2019-06-26T05:56:25.811Z,25.79
2019-06-26T05:58:28.242Z,25.83
2019-06-26T06:00:30.977Z,25.83
2019-06-26T06:02:33.443Z,25.87
2019-06-26T06:04:36.003Z,25.89
2019-06-26T06:06:42.152Z,25.89
2019-06-26T06:08:42.498Z,25.88
2019-06-26T06:10:45.608Z,25.92
2019-06-26T06:12:48.406Z,25.95
2019-06-26T06:14:50.768Z,25.95
2019-06-26T06:16:53.125Z,25.95
2019-06-26T06:18:55.431Z,25.97
2019-06-26T06:20:59.802Z,25.99
2019-06-26T06:23:02.681Z,26.01
2019-06-26T06:25:05.224Z,26.02
2019-06-26T06:27:07.546Z,26.03
2019-06-26T06:29:09.989Z,26.07
2019-06-26T06:31:12.398Z,26.08
2019-06-26T06:33:15.173Z,26.09
2019-06-26T06:35:17.919Z,26.10
2019-06-26T06:37:20.580Z,26.12
2019-06-26T06:39:22.914Z,26.13
2019-06-26T06:41:25.555Z,26.12
2019-06-26T06:43:28.034Z,26.13
2019-06-26T06:45:30.365Z,26.13
2019-06-26T06:47:32.710Z,26.12
2019-06-26T06:49:35.036Z,26.16
2019-06-26T06:51:37.395Z,26.19
2019-06-26T06:53:39.711Z,26.20
2019-06-26T06:55:42.054Z,26.18
2019-06-26T06:57:44.428Z,26.22
2019-06-26T06:59:47.192Z,26.25
2019-06-26T07:01:49.818Z,26.24
2019-06-26T07:03:52.823Z,26.28
2019-06-26T07:05:55.529Z,26.29
2019-06-26T07:07:59.227Z,26.30
2019-06-26T07:10:01.871Z,26.31
2019-06-26T07:12:04.313Z,26.31
2019-06-26T07:14:07.053Z,26.35
2019-06-26T07:16:09.371Z,26.36
2019-06-26T07:18:11.727Z,26.41
2019-06-26T07:20:14.341Z,26.44
2019-06-26T07:22:16.793Z,26.45
2019-06-26T07:24:19.213Z,26.43
2019-06-26T07:26:21.656Z,26.47
2019-06-26T07:28:24.327Z,26.46
2019-06-26T07:30:26.923Z,26.47
2019-06-26T07:32:29.486Z,26.47
2019-06-26T07:34:31.814Z,26.47
2019-06-26T07:36:34.269Z,26.51
2019-06-26T07:38:36.905Z,26.49
2019-06-26T07:40:39.450Z,26.52
2019-06-26T07:42:42.543Z,26.55
2019-06-26T07:44:44.871Z,26.56
2019-06-26T07:46:47.582Z,26.58
2019-06-26T07:48:50.363Z,26.60
2019-06-26T07:50:53.252Z,26.60
2019-06-26T07:52:55.747Z,26.59
2019-06-26T07:54:58.160Z,26.59
2019-06-26T07:57:00.553Z,26.63
2019-06-26T07:59:03.024Z,26.65
2019-06-26T08:01:05.920Z,26.66
2019-06-26T08:03:08.354Z,26.67
2019-06-26T08:05:11.062Z,26.67
2019-06-26T08:07:13.563Z,26.69
2019-06-26T08:09:16.246Z,26.69
2019-06-26T08:11:18.579Z,26.71
2019-06-26T08:13:21.053Z,26.72
2019-06-26T08:15:23.356Z,26.74
2019-06-26T08:17:25.872Z,26.75
2019-06-26T08:19:28.705Z,26.74
2019-06-26T08:21:31.194Z,26.76
2019-06-26T08:23:33.861Z,26.79
2019-06-26T08:25:36.184Z,26.79
2019-06-26T08:27:38.508Z,26.79
2019-06-26T08:29:41.259Z,26.81
2019-06-26T08:31:43.648Z,26.82
2019-06-26T08:33:45.999Z,26.84
2019-06-26T08:35:48.647Z,26.83
2019-06-26T08:37:51.154Z,26.84
2019-06-26T08:39:53.923Z,26.84
2019-06-26T08:41:56.830Z,26.85
2019-06-26T08:43:59.174Z,26.87
2019-06-26T08:46:01.848Z,26.87
2019-06-26T08:48:17.336Z,26.85
2019-06-26T08:50:08.487Z,26.87
2019-06-26T08:52:10.814Z,26.83
2019-06-26T08:54:13.497Z,26.83
2019-06-26T08:56:15.818Z,26.83
2019-06-26T08:58:18.537Z,26.85
2019-06-26T09:00:20.873Z,26.84
2019-06-26T09:02:24.128Z,26.87
2019-06-26T09:04:26.463Z,26.84
2019-06-26T09:06:28.778Z,26.89
2019-06-26T09:08:31.426Z,26.89
2019-06-26T09:10:33.944Z,26.87
2019-06-26T09:12:36.261Z,26.89
2019-06-26T09:14:38.779Z,26.91
2019-06-26T09:16:41.287Z,26.93
2019-06-26T09:18:43.771Z,26.93
2019-06-26T09:20:46.242Z,26.94
2019-06-26T09:22:48.755Z,26.93
2019-06-26T09:24:51.125Z,26.95
2019-06-26T09:26:54.174Z,26.97
2019-06-26T09:28:56.853Z,26.98
2019-06-26T09:30:59.536Z,27.00
2019-06-26T09:33:01.916Z,27.01
2019-06-26T09:35:04.402Z,27.02
2019-06-26T09:37:06.768Z,27.02
2019-06-26T09:39:09.126Z,27.03
2019-06-26T09:41:11.455Z,27.03
2019-06-26T09:43:13.839Z,27.02
2019-06-26T09:45:16.223Z,27.03
2019-06-26T09:47:18.890Z,27.05
2019-06-26T09:49:21.448Z,27.05
2019-06-26T09:51:24.372Z,27.05
2019-06-26T09:53:26.869Z,27.08
2019-06-26T09:55:29.875Z,27.08
2019-06-26T09:57:32.399Z,27.05
2019-06-26T09:59:35.024Z,27.09
2019-06-26T10:01:37.348Z,27.10
2019-06-26T10:03:40.176Z,27.12
2019-06-26T10:05:42.877Z,27.16
2019-06-26T10:07:45.295Z,27.16
2019-06-26T10:09:47.887Z,27.17
2019-06-26T10:11:50.407Z,27.18
2019-06-26T10:13:53.133Z,27.19
2019-06-26T10:15:55.481Z,27.20
2019-06-26T10:17:58.361Z,27.22
2019-06-26T10:20:00.743Z,27.24
2019-06-26T10:22:03.427Z,27.27
2019-06-26T10:24:06.238Z,27.24
2019-06-26T10:26:09.848Z,27.24
2019-06-26T10:28:12.377Z,27.24
2019-06-26T10:30:14.909Z,27.23
2019-06-26T10:32:17.263Z,27.27
2019-06-26T10:34:19.613Z,27.31
2019-06-26T10:36:24.403Z,27.35
2019-06-26T10:38:25.918Z,27.35
2019-06-26T10:40:28.329Z,27.35
2019-06-26T10:42:31.051Z,27.34
2019-06-26T10:44:33.380Z,27.38
2019-06-26T10:46:35.729Z,27.41
2019-06-26T10:48:38.063Z,27.43
2019-06-26T10:50:49.469Z,27.41
2019-06-26T10:52:45.056Z,27.38
2019-06-26T10:54:47.604Z,27.38
2019-06-26T10:56:49.959Z,27.39
2019-06-26T10:58:52.394Z,27.38
2019-06-26T11:00:55.022Z,27.39
2019-06-26T11:02:57.561Z,27.38
2019-06-26T11:05:00.147Z,27.33
2019-06-26T11:07:02.739Z,27.33
2019-06-26T11:09:05.232Z,27.33
2019-06-26T11:11:07.858Z,27.34
2019-06-26T11:13:10.318Z,27.36
2019-06-26T11:15:12.693Z,27.38
2019-06-26T11:17:15.251Z,27.38
2019-06-26T11:19:17.721Z,27.37
2019-06-26T11:21:20.153Z,27.40
2019-06-26T11:23:23.612Z,27.44
2019-06-26T11:25:27.093Z,27.47
2019-06-26T11:27:29.861Z,27.51
2019-06-26T11:29:32.240Z,27.53
2019-06-26T11:31:34.688Z,27.51
2019-06-26T11:33:37.449Z,27.54
2019-06-26T11:35:39.921Z,27.57
2019-06-26T11:37:42.573Z,27.58
2019-06-26T11:39:44.913Z,27.60
2019-06-26T11:41:47.919Z,27.63
2019-06-26T11:43:51.339Z,27.65
2019-06-26T11:45:53.697Z,27.67
2019-06-26T11:47:56.039Z,27.67
2019-06-26T11:50:00.310Z,27.68
2019-06-26T11:52:02.630Z,27.68
2019-06-26T11:54:05.410Z,27.69
2019-06-26T11:56:07.990Z,27.70
2019-06-26T11:58:10.552Z,27.71
2019-06-26T12:00:12.873Z,27.74
2019-06-26T12:02:15.261Z,27.73
2019-06-26T12:04:17.763Z,27.74
2019-06-26T12:06:20.141Z,27.76
2019-06-26T12:08:22.900Z,27.77
2019-06-26T12:10:25.604Z,27.77
2019-06-26T12:12:28.193Z,27.77
2019-06-26T12:14:30.802Z,27.78
2019-06-26T12:16:33.140Z,27.78
2019-06-26T12:18:35.931Z,27.79
2019-06-26T12:20:38.550Z,27.80
2019-06-26T12:22:40.956Z,27.81
2019-06-26T12:24:43.320Z,27.84
2019-06-26T12:26:45.820Z,27.86
2019-06-26T12:28:48.168Z,27.87
2019-06-26T12:30:50.636Z,27.86
2019-06-26T12:33:03.031Z,27.88
2019-06-26T12:34:56.937Z,27.88
2019-06-26T12:36:59.408Z,27.88
2019-06-26T12:39:02.102Z,27.90
2019-06-26T12:41:04.432Z,27.91
2019-06-26T12:43:06.761Z,27.91
2019-06-26T12:45:09.143Z,27.91
2019-06-26T12:47:11.500Z,27.92
2019-06-26T12:49:13.916Z,27.93
2019-06-26T12:51:16.278Z,27.92
2019-06-26T12:53:18.648Z,27.92
2019-06-26T12:55:20.991Z,27.92
2019-06-26T12:57:23.870Z,27.92
2019-06-26T12:59:26.416Z,27.89
2019-06-26T13:01:28.891Z,27.91
2019-06-26T13:03:31.613Z,27.92
2019-06-26T13:05:33.943Z,27.91
2019-06-26T13:07:36.410Z,27.90
2019-06-26T13:09:39.084Z,27.89
2019-06-26T13:11:41.569Z,27.87
2019-06-26T13:13:43.928Z,27.87
2019-06-26T13:15:50.811Z,27.85
2019-06-26T13:17:52.887Z,27.85
2019-06-26T13:19:56.475Z,27.83
2019-06-26T13:21:59.260Z,27.80
2019-06-26T13:24:01.675Z,27.80
2019-06-26T13:26:04.171Z,27.78
2019-06-26T13:28:06.845Z,27.75
2019-06-26T13:30:09.515Z,27.72
2019-06-26T13:32:12.385Z,27.71
2019-06-26T13:34:14.994Z,27.69
2019-06-26T13:36:17.809Z,27.66
2019-06-26T13:38:20.572Z,27.64
2019-06-26T13:40:23.351Z,27.58
2019-06-26T13:42:25.654Z,27.55
2019-06-26T13:44:28.019Z,27.52
2019-06-26T13:46:30.364Z,27.47
2019-06-26T13:48:32.742Z,27.44
2019-06-26T13:50:35.103Z,27.43
2019-06-26T13:52:37.751Z,27.39
2019-06-26T13:54:40.260Z,27.36
2019-06-26T13:56:43.511Z,27.35
2019-06-26T13:58:45.906Z,27.31
2019-06-26T14:00:48.372Z,27.29
2019-06-26T14:02:50.747Z,27.26
2019-06-26T14:04:53.423Z,27.24
2019-06-26T14:06:56.163Z,27.24
2019-06-26T14:08:59.740Z,27.22
2019-06-26T14:11:02.274Z,27.21
2019-06-26T14:13:05.038Z,27.18
2019-06-26T14:15:07.543Z,27.16
2019-06-26T14:17:09.872Z,27.14
2019-06-26T14:19:12.842Z,27.13
2019-06-26T14:21:24.977Z,27.12
2019-06-26T14:23:19.139Z,27.13
2019-06-26T14:25:21.500Z,27.12
2019-06-26T14:27:23.868Z,27.13
2019-06-26T14:29:26.522Z,27.12
2019-06-26T14:31:29.024Z,27.13
2019-06-26T14:33:31.499Z,27.13
2019-06-26T14:35:33.954Z,27.15
2019-06-26T14:37:36.283Z,27.16
2019-06-26T14:39:40.993Z,27.18
2019-06-26T14:41:42.902Z,27.19
2019-06-26T14:43:45.231Z,27.22
2019-06-26T14:45:47.934Z,27.23
2019-06-26T14:47:50.650Z,27.24
2019-06-26T14:49:53.490Z,27.28
2019-06-26T14:51:55.839Z,27.27
2019-06-26T14:53:58.264Z,27.27
2019-06-26T14:56:00.612Z,27.29
2019-06-26T14:58:03.191Z,27.29
2019-06-26T15:00:05.823Z,27.32
2019-06-26T15:02:08.327Z,27.32
2019-06-26T15:04:11.143Z,27.32
2019-06-26T15:06:16.925Z,27.32
2019-06-26T15:08:17.724Z,27.34
2019-06-26T15:10:20.088Z,27.35
2019-06-26T15:12:22.706Z,27.36
2019-06-26T15:14:25.568Z,27.36
2019-06-26T15:16:30.548Z,27.37
2019-06-26T15:18:32.628Z,27.38
2019-06-26T15:20:35.295Z,27.37
2019-06-26T15:22:37.799Z,27.38
2019-06-26T15:24:40.130Z,27.39
2019-06-26T15:26:42.957Z,27.38
2019-06-26T15:28:45.682Z,27.41
2019-06-26T15:30:48.454Z,27.41
2019-06-26T15:32:50.939Z,27.42
2019-06-26T15:34:53.321Z,27.43
2019-06-26T15:36:56.459Z,27.44
2019-06-26T15:38:59.348Z,27.44
2019-06-26T15:41:01.743Z,27.46
2019-06-26T15:43:04.208Z,27.48
2019-06-26T15:45:06.606Z,27.48
2019-06-26T15:47:09.988Z,27.49
2019-06-26T15:49:12.362Z,27.48
2019-06-26T15:51:14.718Z,27.48
2019-06-26T15:53:17.322Z,27.47
2019-06-26T15:55:19.768Z,27.51
2019-06-26T15:57:22.100Z,27.53
2019-06-26T15:59:24.712Z,27.48
2019-06-26T16:01:27.497Z,27.48
2019-06-26T16:03:29.816Z,27.49
2019-06-26T16:05:32.153Z,27.55
2019-06-26T16:07:34.853Z,27.56
2019-06-26T16:09:37.579Z,27.58
2019-06-26T16:11:40.252Z,27.57
2019-06-26T16:13:42.946Z,27.57
2019-06-26T16:15:46.180Z,27.61
2019-06-26T16:17:49.226Z,27.61
2019-06-26T16:19:52.126Z,27.62
2019-06-26T16:21:54.880Z,27.61
2019-06-26T16:23:57.209Z,27.59
2019-06-26T16:25:59.749Z,27.59
2019-06-26T16:28:05.722Z,27.57
2019-06-26T16:30:06.590Z,27.56
2019-06-26T16:32:08.988Z,27.54
2019-06-26T16:34:11.776Z,27.55
2019-06-26T16:36:14.107Z,27.52
2019-06-26T16:38:16.574Z,27.50
2019-06-26T16:40:19.303Z,27.48
2019-06-26T16:42:22.167Z,27.48
2019-06-26T16:44:24.522Z,27.45
2019-06-26T16:46:27.003Z,27.44
2019-06-26T16:48:30.818Z,27.43
2019-06-26T16:50:33.371Z,27.42
2019-06-26T16:52:48.584Z,27.40
2019-06-26T16:54:40.463Z,27.37
2019-06-26T16:56:43.243Z,27.34
2019-06-26T16:58:45.941Z,27.33
2019-06-26T17:00:48.271Z,27.32
2019-06-26T17:02:50.787Z,27.31
2019-06-26T17:04:53.096Z,27.30
2019-06-26T17:06:55.725Z,27.28
2019-06-26T17:08:58.449Z,27.28
2019-06-26T17:11:01.390Z,27.28
2019-06-26T17:13:03.747Z,27.28
2019-06-26T17:15:07.045Z,27.27
2019-06-26T17:17:09.509Z,27.24
2019-06-26T17:19:12.071Z,27.25
2019-06-26T17:21:14.916Z,27.31
2019-06-26T17:23:17.247Z,27.37
2019-06-26T17:25:19.960Z,27.38
2019-06-26T17:27:22.383Z,27.43
2019-06-26T17:29:24.985Z,27.45
2019-06-26T17:31:27.534Z,27.50
2019-06-26T17:33:29.928Z,27.53
2019-06-26T17:35:32.590Z,27.56
2019-06-26T17:37:35.115Z,27.59
2019-06-26T17:39:37.777Z,27.57
2019-06-26T17:41:43.204Z,27.58
2019-06-26T17:43:44.729Z,27.58
2019-06-26T17:45:47.472Z,27.58
2019-06-26T17:47:50.126Z,27.58
2019-06-26T17:49:52.855Z,27.57
2019-06-26T17:51:55.148Z,27.58
2019-06-26T17:53:57.612Z,27.58
2019-06-26T17:55:59.962Z,27.58
2019-06-26T17:58:02.612Z,27.57
2019-06-26T18:00:04.944Z,27.57
2019-06-26T18:02:07.286Z,27.56
2019-06-26T18:04:09.764Z,27.55
2019-06-26T18:06:12.220Z,27.55
2019-06-26T18:08:14.955Z,27.53
2019-06-26T18:10:17.616Z,27.53
2019-06-26T18:12:20.233Z,27.49
2019-06-26T18:14:22.587Z,27.50
2019-06-26T18:16:25.340Z,27.46
2019-06-26T18:18:27.754Z,27.45
2019-06-26T18:20:31.572Z,27.44
2019-06-26T18:22:34.658Z,27.42
2019-06-26T18:24:37.248Z,27.44
2019-06-26T18:26:40.183Z,27.43
2019-06-26T18:28:44.539Z,27.41
2019-06-26T18:30:48.321Z,27.41
2019-06-26T18:32:52.347Z,27.39
2019-06-26T18:34:54.659Z,27.40
2019-06-26T18:36:57.601Z,27.39
2019-06-26T18:39:00.592Z,27.37
2019-06-26T18:41:02.954Z,27.36
2019-06-26T18:43:05.669Z,27.36
2019-06-26T18:45:08.056Z,27.35
2019-06-26T18:47:10.437Z,27.33
2019-06-26T18:49:14.202Z,27.33
2019-06-26T18:51:17.543Z,27.31
2019-06-26T18:53:20.021Z,27.33
2019-06-26T18:55:22.699Z,27.30
2019-06-26T18:57:25.136Z,27.30
2019-06-26T18:59:28.224Z,27.30
2019-06-26T19:01:30.897Z,27.30
2019-06-26T19:03:33.436Z,27.29
2019-06-26T19:05:36.624Z,27.29
2019-06-26T19:07:38.938Z,27.29
2019-06-26T19:09:41.987Z,27.28
2019-06-26T19:11:44.834Z,27.28
2019-06-26T19:13:47.300Z,27.27
2019-06-26T19:15:49.992Z,27.27
2019-06-26T19:17:53.090Z,27.26
2019-06-26T19:19:56.028Z,27.25
2019-06-26T19:21:58.480Z,27.24
2019-06-26T19:24:10.117Z,27.21
2019-06-26T19:26:05.689Z,27.12
2019-06-26T19:28:08.655Z,27.02
2019-06-26T19:30:11.138Z,26.95
2019-06-26T19:32:13.458Z,26.88
2019-06-26T19:34:24.063Z,26.84
2019-06-26T19:36:25.041Z,26.81
2019-06-26T19:38:45.387Z,26.75
2019-06-26T19:40:48.098Z,26.74
2019-06-26T19:42:50.976Z,26.73
2019-06-26T19:44:57.458Z,26.74
2019-06-26T19:46:58.569Z,26.73
2019-06-26T19:49:01.897Z,26.72
2019-06-26T19:51:05.207Z,26.73
2019-06-26T19:53:08.119Z,26.73
2019-06-26T19:55:10.508Z,26.74
2019-06-26T19:57:12.946Z,26.73
2019-06-26T19:59:15.351Z,26.68
2019-06-26T20:01:17.915Z,26.68
2019-06-26T20:03:21.769Z,26.67
2019-06-26T20:05:24.155Z,26.67
2019-06-26T20:07:26.542Z,26.68
2019-06-26T20:09:30.221Z,26.69
2019-06-26T20:11:33.170Z,26.69
2019-06-26T20:13:35.645Z,26.67
2019-06-26T20:15:38.343Z,26.63
2019-06-26T20:17:40.710Z,26.59
2019-06-26T20:19:43.105Z,26.57
2019-06-26T20:21:45.778Z,26.53
2019-06-26T20:23:48.273Z,26.49
2019-06-26T20:25:50.764Z,26.49
2019-06-26T20:27:56.913Z,26.53
2019-06-26T20:29:57.363Z,26.56
2019-06-26T20:32:00.101Z,26.56
2019-06-26T20:34:02.719Z,26.59
2019-06-26T20:36:05.857Z,26.55
2019-06-26T20:38:08.181Z,26.58
2019-06-26T20:40:10.571Z,26.59
2019-06-26T20:42:12.984Z,26.60
2019-06-26T20:44:15.571Z,26.60
2019-06-26T20:46:17.992Z,26.61
2019-06-26T20:48:20.671Z,26.61
2019-06-26T20:50:23.098Z,26.63
2019-06-26T20:52:25.771Z,26.63
2019-06-26T20:54:28.446Z,26.60
2019-06-26T20:56:30.927Z,26.54
2019-06-26T20:58:33.980Z,26.48
2019-06-26T21:00:36.657Z,26.43
2019-06-26T21:02:39.034Z,26.43
2019-06-26T21:04:41.479Z,26.46
2019-06-26T21:06:43.904Z,26.44
2019-06-26T21:08:46.262Z,26.46
2019-06-26T21:10:48.602Z,26.51
2019-06-26T21:12:51.168Z,26.56
2019-06-26T21:14:54.007Z,26.61
2019-06-26T21:16:56.363Z,26.63
2019-06-26T21:18:58.747Z,26.66
2019-06-26T21:21:01.219Z,26.69
2019-06-26T21:23:03.704Z,26.70
2019-06-26T21:25:17.825Z,26.71
2019-06-26T21:27:10.452Z,26.73
2019-06-26T21:29:12.859Z,26.73
2019-06-26T21:31:15.158Z,26.73
2019-06-26T21:33:17.651Z,26.73
2019-06-26T21:35:19.986Z,26.74
2019-06-26T21:37:22.389Z,26.74
2019-06-26T21:39:24.715Z,26.72
2019-06-26T21:41:27.337Z,26.73
2019-06-26T21:43:29.684Z,26.72
2019-06-26T21:45:32.295Z,26.71
2019-06-26T21:47:34.678Z,26.71
2019-06-26T21:49:37.287Z,26.70
2019-06-26T21:51:39.864Z,26.70
2019-06-26T21:53:42.519Z,26.69
2019-06-26T21:55:44.866Z,26.69
2019-06-26T21:57:47.248Z,26.69
2019-06-26T21:59:49.664Z,26.66
2019-06-26T22:01:54.870Z,26.66
2019-06-26T22:04:00.552Z,26.66
2019-06-26T22:06:05.003Z,26.66
2019-06-26T22:08:07.367Z,26.66
2019-06-26T22:10:10.418Z,26.66
2019-06-26T22:12:19.637Z,26.65
2019-06-26T22:14:22.422Z,26.65
2019-06-26T22:16:35.034Z,26.63
2019-06-26T22:18:38.419Z,26.64
2019-06-26T22:20:41.012Z,26.63
2019-06-26T22:22:43.338Z,26.61
2019-06-26T22:24:46.047Z,26.62
2019-06-26T22:26:48.346Z,26.61
2019-06-26T22:28:54.082Z,26.61
2019-06-26T22:30:56.860Z,26.59
2019-06-26T22:32:59.184Z,26.59
2019-06-26T22:35:01.644Z,26.60
2019-06-26T22:37:04.212Z,26.58
2019-06-26T22:39:06.954Z,26.59
2019-06-26T22:41:09.687Z,26.58
2019-06-26T22:43:12.579Z,26.57
2019-06-26T22:45:15.366Z,26.57
2019-06-26T22:47:17.836Z,26.57
2019-06-26T22:49:20.364Z,26.56
2019-06-26T22:51:22.707Z,26.57
2019-06-26T22:53:25.113Z,26.56
2019-06-26T22:55:27.671Z,26.56
2019-06-26T22:57:30.383Z,26.56
2019-06-26T22:59:32.868Z,26.54
2019-06-26T23:01:35.211Z,26.55
2019-06-26T23:03:37.828Z,26.56
2019-06-26T23:05:40.228Z,26.56
2019-06-26T23:07:42.942Z,26.54
2019-06-26T23:09:45.417Z,26.54
2019-06-26T23:11:48.120Z,26.54
2019-06-26T23:13:50.765Z,26.53
2019-06-26T23:15:53.260Z,26.53
2019-06-26T23:17:56.477Z,26.53
2019-06-26T23:19:58.960Z,26.53
2019-06-26T23:22:01.444Z,26.52
2019-06-26T23:24:03.914Z,26.52
2019-06-26T23:26:06.276Z,26.51
2019-06-26T23:28:08.756Z,26.50
2019-06-26T23:30:11.120Z,26.50
2019-06-26T23:32:13.457Z,26.49
2019-06-26T23:34:15.992Z,26.49
2019-06-26T23:36:18.313Z,26.50
2019-06-26T23:38:20.694Z,26.49
2019-06-26T23:40:23.333Z,26.49
2019-06-26T23:42:25.724Z,26.49
2019-06-26T23:44:28.059Z,26.49
2019-06-26T23:46:30.760Z,26.48
2019-06-26T23:48:33.501Z,26.49
2019-06-26T23:50:35.889Z,26.48
2019-06-26T23:52:38.481Z,26.49
2019-06-26T23:54:40.839Z,26.49
2019-06-26T23:56:43.174Z,26.49
2019-06-26T23:58:45.894Z,26.49
